Meteo Giornale » Osservazioni meteo Messico » Hermosillo Son
ore: 09:40 - Osservazioni Meteo Hermosillo Son
Lat. 29° 4' N Lon. 110° 57' W Alt. 211 metri s.l.m.
34 °C
Nuvoloso
Temp. 24 Ore
30 °C
39 °C
Sud/Sud-Est
13 Km/h
Dew point 24 °C
Umidità 56 %
Visibilità 10 Km
Il sole sorge alle ore 06:01
Il sole tramonta alle ore 18:46
| Data e Ora | Cielo e Fenomeni | T °C | DP °C | Um. % | Pres. hPa | Vis. km | Vento km/h | |
|---|---|---|---|---|---|---|---|---|
| Oggi h: 09:40 | Nuvoloso | 34 | 24 | 56 | 1013 | 10 | S/SE 13 | |
| Oggi h: 08:40 | Nuvoloso | 33 | 25 | 62 | 1013 | 10 | S/SE 13 | |
| Oggi h: 07:40 | Nuvoloso | 31 | 26 | 74 | 1013 | 10 | SE 9.3 | |
| Oggi h: 06:40 | Nuvoloso | 30 | 27 | 84 | 1012 | 10 | S/SE 16.7 | |
| Oggi h: 05:40 | Poco Nuvoloso | 31 | 26 | 74 | 1012 | 10 | S/SE 9.3 | |
| Oggi h: 04:43 | Sereno | 31 | 25 | 70 | 1011 | 10 | E 7.4 | |
| Oggi h: 03:41 | Sereno | 31 | 25 | 70 | 1011 | 10 | N 5.5 | |
| Oggi h: 02:40 | Sereno | 30 | 26 | 79 | 1011 | 10 | N 5.5 | |
| Oggi h: 01:40 | Sereno | 31 | 26 | 74 | 1011 | 10 | N 0 | |
| Oggi h: 00:40 | Sereno | 31 | 26 | 74 | 1011 | 10 | N 0 | |
| Ieri h: 23:41 | Sereno | 31 | 25 | 70 | 1011 | 10 | N 0 | |
| Ieri h: 22:40 | Nuvoloso | 32 | 25 | 66 | 1012 | 10 | SO 11.1 | |
| Ieri h: 21:40 | Nuvoloso | 32 | 25 | 66 | 1012 | 10 | SO 13 | |
| Ieri h: 20:40 | Nuvoloso | 34 | 24 | 56 | 1011 | 10 | O/SO 9.3 | |
| Ieri h: 19:40 | Nuvoloso | 35 | 20 | 41 | 1010 | 10 | N/NO 9.3 | |
| Ieri h: 18:40 | Nuvoloso | 38 | 21 | 37 | 1009 | 10 | O/SO 22.2 | |
| Ieri h: 17:40 | Nuvoloso | 38 | 20 | 35 | 1009 | 10 | N 3.7 | |
| Ieri h: 16:40 | Nuvoloso | 39 | 19 | 31 | 1008 | 10 | N 5.5 | |
| Ieri h: 15:40 | Nuvoloso | 39 | 20 | 33 | 1009 | 10 | S 7.4 | |
| Ieri h: 14:40 | Nuvoloso | 38 | 29 | 60 | 1010 | 10 | N 3.7 | |
| Ieri h: 13:40 | Nuvoloso | 36 | 20 | 39 | 1011 | 10 | E 7.4 | |
| Ieri h: 12:41 | Nuvoloso | 35 | 20 | 41 | 1012 | 10 | E/NE 13 | |
| Ieri h: 11:40 | Nuvoloso | 34 | 19 | 41 | 1013 | 10 | E 20.3 | |
| Ieri h: 10:40 | Nuvoloso | 34 | 19 | 41 | 1014 | 10 | E 24 | |



